createdAt,value
2023-05-05T00:00:40.298Z,8.30
2023-05-05T00:06:02.051Z,7.40
2023-05-05T00:11:23.687Z,7.10
2023-05-05T00:16:45.345Z,7.40
2023-05-05T00:22:07.422Z,7.60
2023-05-05T00:27:29.068Z,7.60
2023-05-05T00:32:51.248Z,8.00
2023-05-05T00:38:15.091Z,8.00
2023-05-05T00:43:36.899Z,8.40
2023-05-05T00:48:59.919Z,8.10
2023-05-05T00:54:25.178Z,8.60
2023-05-05T00:59:50.130Z,9.20
2023-05-05T01:05:13.846Z,8.90
2023-05-05T01:10:43.442Z,9.30
2023-05-05T01:16:25.850Z,8.40
2023-05-05T01:21:50.532Z,8.50
2023-05-05T01:27:28.737Z,8.60
2023-05-05T01:32:59.445Z,9.00
2023-05-05T01:38:41.883Z,8.40
2023-05-05T01:44:05.794Z,8.40
2023-05-05T01:49:29.364Z,8.90
2023-05-05T01:54:56.478Z,7.50
2023-05-05T02:00:19.528Z,8.60
2023-05-05T02:05:42.020Z,8.90
2023-05-05T02:11:05.431Z,9.40
2023-05-05T02:16:28.145Z,8.90
2023-05-05T02:21:50.362Z,8.50
2023-05-05T02:27:12.239Z,8.30
2023-05-05T02:32:37.931Z,8.10
2023-05-05T02:38:04.893Z,8.10
2023-05-05T02:43:31.765Z,8.10
2023-05-05T02:48:54.111Z,7.50
2023-05-05T02:54:15.984Z,7.80
2023-05-05T02:59:51.339Z,7.70
2023-05-05T03:05:24.228Z,8.10
2023-05-05T03:11:04.605Z,7.20
2023-05-05T03:16:29.735Z,7.40
2023-05-05T03:21:52.616Z,7.20
2023-05-05T03:27:14.566Z,7.00
2023-05-05T03:32:37.708Z,7.30
2023-05-05T03:38:00.252Z,7.00
2023-05-05T03:43:23.311Z,7.60
2023-05-05T03:48:45.104Z,7.00
2023-05-05T03:54:07.191Z,7.60
2023-05-05T03:59:29.824Z,9.50
2023-05-05T04:04:51.677Z,7.50
2023-05-05T04:10:13.602Z,8.10
2023-05-05T04:15:35.501Z,8.50
2023-05-05T04:20:57.332Z,8.40
2023-05-05T04:26:19.697Z,8.80
2023-05-05T04:31:43.425Z,10.20
2023-05-05T04:37:05.827Z,9.70
2023-05-05T04:42:27.555Z,11.50
2023-05-05T04:47:52.953Z,13.00
2023-05-05T04:53:14.948Z,10.90
2023-05-05T04:58:39.004Z,10.40
2023-05-05T05:04:01.532Z,10.80
2023-05-05T05:15:01.652Z,11.10
2023-05-05T05:20:25.003Z,11.80
2023-05-05T05:25:47.235Z,9.60
2023-05-05T05:31:11.837Z,9.00
2023-05-05T05:36:34.298Z,8.20
2023-05-05T05:41:56.111Z,6.80
2023-05-05T05:47:18.439Z,7.10
2023-05-05T05:52:40.665Z,6.20
2023-05-05T05:58:02.791Z,6.70
2023-05-05T06:03:25.526Z,5.90
2023-05-05T06:08:47.610Z,5.40
2023-05-05T06:14:09.471Z,5.80
2023-05-05T06:19:35.306Z,5.60
2023-05-05T06:24:57.109Z,5.80
2023-05-05T06:30:19.698Z,5.80
2023-05-05T06:35:42.466Z,5.30
2023-05-05T06:41:04.658Z,4.90
2023-05-05T06:46:27.090Z,5.60
2023-05-05T06:51:50.061Z,5.10
2023-05-05T06:57:13.139Z,4.90
2023-05-05T07:02:35.038Z,4.40
2023-05-05T07:07:57.500Z,5.70
2023-05-05T07:13:19.381Z,4.60
2023-05-05T07:18:41.304Z,4.20
2023-05-05T07:24:03.623Z,3.80
2023-05-05T07:29:25.349Z,4.30
2023-05-05T07:34:47.059Z,4.10
2023-05-05T07:40:09.504Z,3.90
2023-05-05T07:45:31.592Z,3.80
2023-05-05T07:50:53.106Z,3.70
2023-05-05T07:56:14.991Z,3.60
2023-05-05T08:01:39.096Z,3.20
2023-05-05T08:07:03.192Z,3.50
2023-05-05T08:12:24.935Z,3.80
2023-05-05T08:17:49.370Z,2.90
2023-05-05T08:23:13.562Z,2.90
2023-05-05T08:28:36.998Z,3.00
2023-05-05T08:34:00.898Z,2.60
2023-05-05T08:39:23.068Z,2.70
2023-05-05T08:44:44.796Z,3.20
2023-05-05T08:50:07.985Z,2.60
2023-05-05T08:55:34.288Z,3.00
2023-05-05T09:00:56.967Z,3.20
2023-05-05T09:06:21.318Z,3.30
2023-05-05T09:11:43.984Z,2.90
2023-05-05T09:17:06.248Z,3.80
2023-05-05T09:22:33.246Z,3.80
2023-05-05T09:27:55.084Z,3.60
2023-05-05T09:33:31.651Z,3.50
2023-05-05T09:39:04.526Z,2.90
2023-05-05T09:44:40.189Z,3.30
2023-05-05T09:50:02.439Z,3.40
2023-05-05T09:55:24.999Z,2.80
2023-05-05T10:00:46.889Z,2.30
2023-05-05T10:06:08.822Z,2.80
2023-05-05T10:11:30.715Z,2.90
2023-05-05T10:16:54.372Z,2.90
2023-05-05T10:22:17.417Z,2.60
2023-05-05T10:27:46.881Z,2.60
2023-05-05T10:38:45.588Z,3.00
2023-05-05T10:44:10.736Z,2.30
2023-05-05T10:50:12.000Z,2.00
2023-05-05T10:56:10.948Z,2.30
2023-05-05T11:01:34.647Z,2.60
2023-05-05T11:07:12.472Z,2.50
2023-05-05T11:12:59.438Z,2.00
2023-05-05T11:18:36.034Z,2.10
2023-05-05T11:24:30.094Z,2.30
2023-05-05T11:30:03.789Z,2.90
2023-05-05T11:36:09.080Z,2.40
2023-05-05T11:41:30.898Z,2.90
2023-05-05T11:46:52.642Z,2.20
2023-05-05T11:52:15.175Z,2.20
2023-05-05T11:57:40.025Z,21.70
2023-05-05T12:03:01.964Z,3.00
2023-05-05T12:08:24.454Z,3.20
2023-05-05T12:13:48.186Z,2.60
2023-05-05T12:19:11.924Z,2.60
2023-05-05T12:24:33.615Z,2.70
2023-05-05T12:29:56.908Z,2.80
2023-05-05T12:35:20.057Z,2.30
2023-05-05T12:40:47.108Z,2.10
2023-05-05T12:46:12.039Z,2.30
2023-05-05T12:51:37.678Z,2.50
2023-05-05T12:57:11.124Z,2.60
2023-05-05T13:02:35.977Z,2.60
2023-05-05T13:07:58.498Z,2.50
2023-05-05T13:13:19.885Z,3.30
2023-05-05T13:18:45.377Z,2.60
2023-05-05T13:24:20.791Z,2.40
2023-05-05T13:35:07.518Z,2.50
2023-05-05T13:40:29.642Z,2.60
2023-05-05T13:45:51.471Z,2.90
2023-05-05T13:51:13.311Z,2.90
2023-05-05T13:56:35.297Z,2.70
2023-05-05T14:01:57.259Z,2.60
2023-05-05T14:07:19.092Z,2.40
2023-05-05T14:12:41.241Z,2.70
2023-05-05T14:18:03.297Z,2.50
2023-05-05T14:23:25.180Z,3.70
2023-05-05T14:28:53.353Z,2.30
2023-05-05T14:34:15.266Z,5.10
2023-05-05T14:39:36.883Z,2.70
2023-05-05T14:44:58.508Z,2.50
2023-05-05T14:50:20.742Z,2.90
2023-05-05T14:55:42.554Z,3.10
2023-05-05T15:01:05.317Z,3.20
2023-05-05T15:06:28.238Z,3.10
2023-05-05T15:11:50.042Z,5.20
2023-05-05T15:17:11.798Z,3.50
2023-05-05T15:22:33.338Z,2.90
2023-05-05T15:27:55.255Z,3.40
2023-05-05T15:33:17.381Z,3.40
2023-05-05T15:38:44.654Z,3.50
2023-05-05T15:44:06.650Z,3.40
2023-05-05T15:49:28.154Z,3.30
2023-05-05T15:54:50.010Z,3.50
2023-05-05T16:00:12.645Z,3.10
2023-05-05T16:05:35.683Z,3.80
2023-05-05T16:10:57.504Z,3.60
2023-05-05T16:16:19.579Z,3.40
2023-05-05T16:21:41.361Z,4.20
2023-05-05T16:27:03.897Z,4.10
2023-05-05T16:32:25.640Z,3.30
2023-05-05T16:37:48.060Z,4.10
2023-05-05T16:43:09.789Z,3.40
2023-05-05T16:48:31.410Z,3.20
2023-05-05T16:53:55.853Z,4.10
2023-05-05T16:59:19.341Z,3.50
2023-05-05T17:04:41.409Z,3.90
2023-05-05T17:10:03.043Z,3.50
2023-05-05T17:15:24.661Z,3.10
2023-05-05T17:20:46.535Z,3.70
2023-05-05T17:26:08.470Z,3.10
2023-05-05T17:31:30.684Z,3.70
2023-05-05T17:36:52.386Z,3.90
2023-05-05T17:42:14.434Z,3.60
2023-05-05T17:47:36.756Z,3.70
2023-05-05T17:52:58.645Z,3.70
2023-05-05T17:58:20.711Z,4.00
2023-05-05T18:03:42.896Z,4.30
2023-05-05T18:09:05.081Z,3.70
2023-05-05T18:14:26.603Z,4.10
2023-05-05T18:19:49.366Z,6.30
2023-05-05T18:25:14.232Z,8.50
2023-05-05T18:36:12.065Z,7.10
2023-05-05T18:41:33.602Z,5.00
2023-05-05T18:46:57.290Z,6.90
2023-05-05T18:52:19.270Z,5.40
2023-05-05T18:57:40.989Z,5.10
2023-05-05T19:03:02.806Z,4.90
2023-05-05T19:08:24.948Z,6.30
2023-05-05T19:13:46.980Z,4.30
2023-05-05T19:19:10.960Z,4.10
2023-05-05T19:24:35.849Z,4.10
2023-05-05T19:29:57.551Z,4.20
2023-05-05T19:35:19.597Z,4.20
2023-05-05T19:40:41.905Z,4.90
2023-05-05T19:46:03.628Z,4.60
2023-05-05T19:51:26.242Z,4.90
2023-05-05T19:56:48.037Z,3.80
2023-05-05T20:02:11.701Z,3.90
2023-05-05T20:07:33.691Z,3.80
2023-05-05T20:12:55.199Z,3.70
2023-05-05T20:18:16.949Z,4.50
2023-05-05T20:23:38.978Z,4.70
2023-05-05T20:29:00.811Z,4.20
2023-05-05T20:34:25.281Z,5.10
2023-05-05T20:39:47.496Z,5.30
2023-05-05T20:45:10.788Z,4.60
2023-05-05T20:50:32.977Z,4.20
2023-05-05T20:55:54.576Z,4.30
2023-05-05T21:01:17.139Z,3.70
2023-05-05T21:06:41.436Z,4.10
2023-05-05T21:12:03.968Z,4.00
2023-05-05T21:17:26.036Z,4.50
2023-05-05T21:22:47.928Z,5.90
2023-05-05T21:28:09.469Z,5.50
2023-05-05T21:33:34.142Z,5.70
2023-05-05T21:38:57.758Z,5.30
2023-05-05T21:44:20.776Z,4.40
2023-05-05T21:49:43.577Z,5.30
2023-05-05T21:55:06.152Z,5.00
2023-05-05T22:00:27.996Z,5.90
2023-05-05T22:05:51.064Z,5.10
2023-05-05T22:11:13.434Z,4.90
2023-05-05T22:16:35.217Z,4.70
2023-05-05T22:21:59.722Z,4.80
2023-05-05T22:27:21.424Z,5.20
2023-05-05T22:32:43.553Z,4.70
2023-05-05T22:38:06.154Z,5.40
2023-05-05T22:43:27.885Z,5.00
2023-05-05T22:48:49.327Z,5.80
2023-05-05T22:54:13.660Z,6.00
2023-05-05T22:59:40.917Z,5.70
2023-05-05T23:05:03.062Z,4.70
2023-05-05T23:10:25.020Z,5.00
2023-05-05T23:15:47.114Z,4.80
2023-05-05T23:21:09.669Z,5.10
2023-05-05T23:26:31.468Z,5.00
2023-05-05T23:31:53.516Z,5.00
2023-05-05T23:37:16.092Z,5.00
2023-05-05T23:42:38.857Z,4.90
2023-05-05T23:48:01.186Z,4.90
2023-05-05T23:53:22.999Z,4.40
2023-05-05T23:58:45.041Z,4.40
